sensor_id;sensor_type;location;lat;lon;timestamp;pressure;altitude;pressure_sealevel;temperature;humidity
75039;BME280;63609;49.992;14.512;2023-12-28T00:02:13;98178.13;;;2.59;67.17
75039;BME280;63609;49.992;14.512;2023-12-28T00:04:40;98183.06;;;2.51;67.39
75039;BME280;63609;49.992;14.512;2023-12-28T00:07:07;98179.16;;;2.71;66.78
75039;BME280;63609;49.992;14.512;2023-12-28T00:09:34;98173.03;;;2.70;66.41
75039;BME280;63609;49.992;14.512;2023-12-28T00:12:01;98171.91;;;2.60;66.81
75039;BME280;63609;49.992;14.512;2023-12-28T00:14:28;98191.72;;;2.80;65.98
75039;BME280;63609;49.992;14.512;2023-12-28T00:16:55;98192.25;;;2.17;68.11
75039;BME280;63609;49.992;14.512;2023-12-28T00:19:22;98191.97;;;2.35;67.22
75039;BME280;63609;49.992;14.512;2023-12-28T00:21:49;98180.84;;;2.30;67.54
75039;BME280;63609;49.992;14.512;2023-12-28T00:24:16;98172.97;;;2.57;66.31
75039;BME280;63609;49.992;14.512;2023-12-28T00:26:43;98177.06;;;2.76;65.93
75039;BME280;63609;49.992;14.512;2023-12-28T00:29:11;98173.31;;;3.32;63.31
75039;BME280;63609;49.992;14.512;2023-12-28T00:31:38;98172.63;;;3.16;63.38
75039;BME280;63609;49.992;14.512;2023-12-28T00:34:05;98172.75;;;2.75;64.28
75039;BME280;63609;49.992;14.512;2023-12-28T00:36:32;98173.88;;;2.44;65.85
75039;BME280;63609;49.992;14.512;2023-12-28T00:38:59;98164.06;;;2.99;63.42
75039;BME280;63609;49.992;14.512;2023-12-28T00:41:27;98166.75;;;2.58;64.52
75039;BME280;63609;49.992;14.512;2023-12-28T00:43:54;98161.13;;;2.09;67.13
75039;BME280;63609;49.992;14.512;2023-12-28T00:46:20;98165.63;;;2.21;66.39
75039;BME280;63609;49.992;14.512;2023-12-28T00:48:47;98165.97;;;2.29;66.02
75039;BME280;63609;49.992;14.512;2023-12-28T00:51:15;98165.34;;;2.53;65.08
75039;BME280;63609;49.992;14.512;2023-12-28T00:53:42;98162.28;;;2.32;65.71
75039;BME280;63609;49.992;14.512;2023-12-28T00:56:11;98164.28;;;2.43;65.25
75039;BME280;63609;49.992;14.512;2023-12-28T00:58:39;98154.97;;;2.23;65.38
75039;BME280;63609;49.992;14.512;2023-12-28T01:03:32;98170.44;;;1.86;67.57
75039;BME280;63609;49.992;14.512;2023-12-28T01:05:59;98175.69;;;2.70;64.06
75039;BME280;63609;49.992;14.512;2023-12-28T01:08:25;98179.81;;;2.74;63.21
75039;BME280;63609;49.992;14.512;2023-12-28T01:10:52;98168.63;;;2.71;62.35
75039;BME280;63609;49.992;14.512;2023-12-28T01:13:19;98161.84;;;2.66;62.40
75039;BME280;63609;49.992;14.512;2023-12-28T01:15:46;98170.31;;;2.72;61.93
75039;BME280;63609;49.992;14.512;2023-12-28T01:18:13;98170.72;;;2.65;62.03
75039;BME280;63609;49.992;14.512;2023-12-28T01:20:40;98165.88;;;2.72;62.28
75039;BME280;63609;49.992;14.512;2023-12-28T01:23:06;98154.91;;;2.51;63.41
75039;BME280;63609;49.992;14.512;2023-12-28T01:25:33;98166.34;;;2.38;62.87
75039;BME280;63609;49.992;14.512;2023-12-28T01:28:03;98168.25;;;2.21;63.99
75039;BME280;63609;49.992;14.512;2023-12-28T01:30:31;98172.97;;;2.16;63.65
75039;BME280;63609;49.992;14.512;2023-12-28T01:32:58;98184.59;;;2.41;62.79
75039;BME280;63609;49.992;14.512;2023-12-28T01:35:25;98173.91;;;2.56;61.11
75039;BME280;63609;49.992;14.512;2023-12-28T01:37:51;98192.34;;;2.56;61.29
75039;BME280;63609;49.992;14.512;2023-12-28T01:40:18;98189.75;;;2.01;61.81
75039;BME280;63609;49.992;14.512;2023-12-28T01:42:45;98195.25;;;1.54;63.09
75039;BME280;63609;49.992;14.512;2023-12-28T01:45:12;98193.09;;;1.30;65.05
75039;BME280;63609;49.992;14.512;2023-12-28T01:47:39;98185.19;;;1.16;65.01
75039;BME280;63609;49.992;14.512;2023-12-28T01:50:07;98190.72;;;1.11;64.99
75039;BME280;63609;49.992;14.512;2023-12-28T01:52:34;98197.88;;;1.24;64.04
75039;BME280;63609;49.992;14.512;2023-12-28T01:55:02;98199.75;;;1.22;64.12
75039;BME280;63609;49.992;14.512;2023-12-28T01:57:30;98176.81;;;1.09;64.93
75039;BME280;63609;49.992;14.512;2023-12-28T01:59:58;98180.75;;;1.17;65.24
75039;BME280;63609;49.992;14.512;2023-12-28T02:02:38;98175.88;;;1.40;63.65
75039;BME280;63609;49.992;14.512;2023-12-28T02:05:07;98159.44;;;1.65;63.81
75039;BME280;63609;49.992;14.512;2023-12-28T02:07:36;98147.31;;;1.04;65.62
75039;BME280;63609;49.992;14.512;2023-12-28T02:10:03;98150.72;;;0.91;65.80
75039;BME280;63609;49.992;14.512;2023-12-28T02:12:30;98155.09;;;1.06;66.39
75039;BME280;63609;49.992;14.512;2023-12-28T02:14:57;98159.81;;;1.45;65.17
75039;BME280;63609;49.992;14.512;2023-12-28T02:17:47;98162.25;;;1.62;65.17
75039;BME280;63609;49.992;14.512;2023-12-28T02:20:15;98144.97;;;1.58;64.83
75039;BME280;63609;49.992;14.512;2023-12-28T02:22:43;98156.06;;;1.49;65.17
75039;BME280;63609;49.992;14.512;2023-12-28T02:25:11;98151.38;;;1.68;64.40
75039;BME280;63609;49.992;14.512;2023-12-28T02:27:41;98131.94;;;1.27;63.65
75039;BME280;63609;49.992;14.512;2023-12-28T02:30:10;98131.03;;;0.68;64.76
75039;BME280;63609;49.992;14.512;2023-12-28T02:32:47;98137.09;;;0.84;65.48
75039;BME280;63609;49.992;14.512;2023-12-28T02:37:55;98147.06;;;0.93;65.34
75039;BME280;63609;49.992;14.512;2023-12-28T02:40:23;98141.09;;;0.45;67.66
75039;BME280;63609;49.992;14.512;2023-12-28T02:42:52;98138.88;;;0.38;69.03
75039;BME280;63609;49.992;14.512;2023-12-28T02:45:19;98137.69;;;0.43;69.42
75039;BME280;63609;49.992;14.512;2023-12-28T02:47:46;98132.66;;;0.55;68.65
75039;BME280;63609;49.992;14.512;2023-12-28T02:50:13;98140.84;;;1.10;66.81
75039;BME280;63609;49.992;14.512;2023-12-28T02:52:40;98146.41;;;1.34;66.29
75039;BME280;63609;49.992;14.512;2023-12-28T02:55:07;98153.72;;;1.59;64.02
75039;BME280;63609;49.992;14.512;2023-12-28T02:57:34;98140.09;;;1.08;65.83
75039;BME280;63609;49.992;14.512;2023-12-28T03:00:05;98120.94;;;0.76;66.78
75039;BME280;63609;49.992;14.512;2023-12-28T03:02:32;98117.53;;;0.28;69.37
75039;BME280;63609;49.992;14.512;2023-12-28T03:05:00;98118.03;;;0.03;71.24
75039;BME280;63609;49.992;14.512;2023-12-28T03:07:26;98110.88;;;0.07;71.12
75039;BME280;63609;49.992;14.512;2023-12-28T03:09:53;98098.47;;;0.25;71.57
75039;BME280;63609;49.992;14.512;2023-12-28T03:12:21;98089.06;;;0.36;71.13
75039;BME280;63609;49.992;14.512;2023-12-28T03:14:49;98084.41;;;0.26;70.75
75039;BME280;63609;49.992;14.512;2023-12-28T03:17:15;98083.00;;;0.20;71.59
75039;BME280;63609;49.992;14.512;2023-12-28T03:19:45;98074.63;;;-0.02;72.25
75039;BME280;63609;49.992;14.512;2023-12-28T03:22:12;98080.94;;;0.41;70.94
75039;BME280;63609;49.992;14.512;2023-12-28T03:24:39;98077.03;;;0.32;70.75
75039;BME280;63609;49.992;14.512;2023-12-28T03:27:06;98075.53;;;0.28;70.90
75039;BME280;63609;49.992;14.512;2023-12-28T03:29:33;98068.91;;;0.67;69.60
75039;BME280;63609;49.992;14.512;2023-12-28T03:32:00;98067.66;;;0.58;69.50
75039;BME280;63609;49.992;14.512;2023-12-28T03:34:27;98077.31;;;0.58;69.29
75039;BME280;63609;49.992;14.512;2023-12-28T03:36:56;98090.84;;;0.66;69.20
75039;BME280;63609;49.992;14.512;2023-12-28T03:39:26;98105.69;;;0.97;67.58
75039;BME280;63609;49.992;14.512;2023-12-28T03:41:54;98111.56;;;1.16;66.88
75039;BME280;63609;49.992;14.512;2023-12-28T03:44:22;98107.75;;;1.36;65.69
75039;BME280;63609;49.992;14.512;2023-12-28T03:46:50;98103.81;;;1.43;65.81
75039;BME280;63609;49.992;14.512;2023-12-28T03:49:18;98108.25;;;1.12;67.00
75039;BME280;63609;49.992;14.512;2023-12-28T03:51:48;98117.47;;;1.34;65.81
75039;BME280;63609;49.992;14.512;2023-12-28T03:54:16;98117.34;;;1.65;64.83
75039;BME280;63609;49.992;14.512;2023-12-28T03:56:43;98115.72;;;2.05;62.40
75039;BME280;63609;49.992;14.512;2023-12-28T03:59:11;98118.44;;;1.90;62.98
75039;BME280;63609;49.992;14.512;2023-12-28T04:01:38;98106.16;;;1.62;63.66
75039;BME280;63609;49.992;14.512;2023-12-28T04:04:05;98093.63;;;1.08;65.53
75039;BME280;63609;49.992;14.512;2023-12-28T04:06:32;98096.34;;;1.07;65.65
75039;BME280;63609;49.992;14.512;2023-12-28T04:08:59;98090.66;;;0.85;66.56
75039;BME280;63609;49.992;14.512;2023-12-28T04:11:26;98094.88;;;0.87;66.15
75039;BME280;63609;49.992;14.512;2023-12-28T04:13:53;98096.25;;;0.78;66.44
75039;BME280;63609;49.992;14.512;2023-12-28T04:16:20;98096.09;;;0.81;66.56
75039;BME280;63609;49.992;14.512;2023-12-28T04:18:47;98096.81;;;1.13;65.48
75039;BME280;63609;49.992;14.512;2023-12-28T04:21:14;98103.94;;;1.26;64.52
75039;BME280;63609;49.992;14.512;2023-12-28T04:23:41;98098.41;;;1.30;64.62
75039;BME280;63609;49.992;14.512;2023-12-28T04:26:08;98085.06;;;1.05;64.85
75039;BME280;63609;49.992;14.512;2023-12-28T04:28:37;98084.22;;;1.04;64.90
75039;BME280;63609;49.992;14.512;2023-12-28T04:31:05;98089.69;;;1.16;64.21
75039;BME280;63609;49.992;14.512;2023-12-28T04:33:33;98094.00;;;1.17;64.87
75039;BME280;63609;49.992;14.512;2023-12-28T04:36:02;98101.41;;;1.24;64.14
75039;BME280;63609;49.992;14.512;2023-12-28T04:38:33;98093.28;;;0.99;64.65
75039;BME280;63609;49.992;14.512;2023-12-28T04:41:00;98094.19;;;1.13;64.29
75039;BME280;63609;49.992;14.512;2023-12-28T04:43:28;98079.91;;;1.32;62.87
75039;BME280;63609;49.992;14.512;2023-12-28T04:45:54;98087.84;;;1.02;64.54
75039;BME280;63609;49.992;14.512;2023-12-28T04:48:21;98091.47;;;0.71;65.68
75039;BME280;63609;49.992;14.512;2023-12-28T04:50:51;98091.34;;;0.42;66.12
75039;BME280;63609;49.992;14.512;2023-12-28T04:53:19;98098.16;;;0.61;65.76
75039;BME280;63609;49.992;14.512;2023-12-28T04:55:47;98100.03;;;0.59;66.08
75039;BME280;63609;49.992;14.512;2023-12-28T04:58:14;98110.94;;;0.21;67.04
75039;BME280;63609;49.992;14.512;2023-12-28T05:00:41;98119.72;;;0.36;66.83
75039;BME280;63609;49.992;14.512;2023-12-28T05:03:09;98125.25;;;0.77;65.35
75039;BME280;63609;49.992;14.512;2023-12-28T05:05:35;98129.59;;;0.92;64.94
75039;BME280;63609;49.992;14.512;2023-12-28T05:08:03;98132.97;;;0.80;64.99
75039;BME280;63609;49.992;14.512;2023-12-28T05:10:30;98127.88;;;0.77;64.21
75039;BME280;63609;49.992;14.512;2023-12-28T05:12:57;98132.72;;;0.69;64.98
75039;BME280;63609;49.992;14.512;2023-12-28T05:15:28;98136.63;;;1.07;63.64
75039;BME280;63609;49.992;14.512;2023-12-28T05:17:55;98140.53;;;0.70;63.77
75039;BME280;63609;49.992;14.512;2023-12-28T05:20:24;98149.28;;;0.71;64.47
75039;BME280;63609;49.992;14.512;2023-12-28T05:22:50;98141.78;;;0.79;63.82
75039;BME280;63609;49.992;14.512;2023-12-28T05:25:17;98145.47;;;0.29;65.16
75039;BME280;63609;49.992;14.512;2023-12-28T05:27:44;98144.72;;;0.43;65.24
75039;BME280;63609;49.992;14.512;2023-12-28T05:30:11;98152.16;;;0.35;65.77
75039;BME280;63609;49.992;14.512;2023-12-28T05:32:39;98136.75;;;0.44;64.99
75039;BME280;63609;49.992;14.512;2023-12-28T05:35:06;98133.44;;;0.57;64.63
75039;BME280;63609;49.992;14.512;2023-12-28T05:37:34;98126.78;;;0.65;63.84
75039;BME280;63609;49.992;14.512;2023-12-28T05:40:01;98132.00;;;0.51;63.89
75039;BME280;63609;49.992;14.512;2023-12-28T05:42:28;98118.59;;;0.71;63.60
75039;BME280;63609;49.992;14.512;2023-12-28T05:44:55;98118.91;;;0.95;61.96
75039;BME280;63609;49.992;14.512;2023-12-28T05:47:22;98116.72;;;1.03;61.45
75039;BME280;63609;49.992;14.512;2023-12-28T05:49:49;98120.78;;;1.37;60.41
75039;BME280;63609;49.992;14.512;2023-12-28T05:52:18;98125.16;;;1.53;59.22
75039;BME280;63609;49.992;14.512;2023-12-28T05:54:46;98129.41;;;1.69;58.92
75039;BME280;63609;49.992;14.512;2023-12-28T05:57:15;98121.00;;;1.91;58.17
75039;BME280;63609;49.992;14.512;2023-12-28T05:59:42;98114.84;;;2.19;56.81
75039;BME280;63609;49.992;14.512;2023-12-28T06:02:09;98116.81;;;2.16;56.10
75039;BME280;63609;49.992;14.512;2023-12-28T06:04:36;98115.25;;;2.40;55.38
75039;BME280;63609;49.992;14.512;2023-12-28T06:07:04;98127.75;;;2.63;54.71
75039;BME280;63609;49.992;14.512;2023-12-28T06:09:32;98131.44;;;2.88;53.21
75039;BME280;63609;49.992;14.512;2023-12-28T06:11:59;98129.00;;;2.85;53.24
75039;BME280;63609;49.992;14.512;2023-12-28T06:14:26;98138.81;;;2.95;52.84
75039;BME280;63609;49.992;14.512;2023-12-28T06:16:53;98139.09;;;3.18;52.29
75039;BME280;63609;49.992;14.512;2023-12-28T06:19:20;98132.75;;;3.20;51.87
75039;BME280;63609;49.992;14.512;2023-12-28T06:21:49;98141.22;;;3.51;51.76
75039;BME280;63609;49.992;14.512;2023-12-28T06:24:16;98140.69;;;3.58;51.42
75039;BME280;63609;49.992;14.512;2023-12-28T06:26:44;98143.31;;;3.20;52.33
75039;BME280;63609;49.992;14.512;2023-12-28T06:29:11;98137.44;;;3.42;52.28
75039;BME280;63609;49.992;14.512;2023-12-28T06:31:38;98140.91;;;3.81;51.42
75039;BME280;63609;49.992;14.512;2023-12-28T06:34:06;98149.25;;;3.75;51.32
75039;BME280;63609;49.992;14.512;2023-12-28T06:36:34;98158.28;;;3.20;52.51
75039;BME280;63609;49.992;14.512;2023-12-28T06:39:01;98152.00;;;3.35;52.58
75039;BME280;63609;49.992;14.512;2023-12-28T06:41:28;98159.19;;;2.93;53.87
75039;BME280;63609;49.992;14.512;2023-12-28T06:43:54;98163.69;;;2.79;53.47
75039;BME280;63609;49.992;14.512;2023-12-28T06:46:22;98156.22;;;2.85;53.56
75039;BME280;63609;49.992;14.512;2023-12-28T06:48:49;98141.84;;;3.16;51.93
75039;BME280;63609;49.992;14.512;2023-12-28T06:51:19;98144.47;;;3.16;52.10
75039;BME280;63609;49.992;14.512;2023-12-28T06:53:47;98143.34;;;3.71;51.42
75039;BME280;63609;49.992;14.512;2023-12-28T06:56:15;98136.38;;;3.70;50.20
75039;BME280;63609;49.992;14.512;2023-12-28T06:58:42;98137.09;;;3.59;50.35
75039;BME280;63609;49.992;14.512;2023-12-28T07:01:10;98149.16;;;3.89;50.31
75039;BME280;63609;49.992;14.512;2023-12-28T07:03:40;98145.88;;;3.85;50.30
75039;BME280;63609;49.992;14.512;2023-12-28T07:06:07;98153.50;;;4.03;48.92
75039;BME280;63609;49.992;14.512;2023-12-28T07:08:35;98163.53;;;3.85;49.22
75039;BME280;63609;49.992;14.512;2023-12-28T07:11:03;98154.97;;;3.94;49.29
75039;BME280;63609;49.992;14.512;2023-12-28T07:13:32;98154.38;;;4.27;49.05
75039;BME280;63609;49.992;14.512;2023-12-28T07:15:59;98142.25;;;4.48;48.18
75039;BME280;63609;49.992;14.512;2023-12-28T07:18:27;98129.03;;;4.48;48.95
75039;BME280;63609;49.992;14.512;2023-12-28T07:20:55;98143.03;;;4.38;48.87
75039;BME280;63609;49.992;14.512;2023-12-28T07:23:22;98146.38;;;4.29;48.56
75039;BME280;63609;49.992;14.512;2023-12-28T07:25:49;98138.72;;;4.37;48.92
75039;BME280;63609;49.992;14.512;2023-12-28T07:28:16;98145.06;;;4.34;49.85
75039;BME280;63609;49.992;14.512;2023-12-28T07:30:43;98138.78;;;4.48;49.28
75039;BME280;63609;49.992;14.512;2023-12-28T07:33:10;98141.50;;;4.22;50.34
75039;BME280;63609;49.992;14.512;2023-12-28T07:35:38;98146.44;;;4.27;49.66
75039;BME280;63609;49.992;14.512;2023-12-28T07:38:05;98146.63;;;4.73;48.15
75039;BME280;63609;49.992;14.512;2023-12-28T07:40:32;98157.41;;;4.94;48.30
75039;BME280;63609;49.992;14.512;2023-12-28T07:42:59;98152.66;;;4.86;47.89
75039;BME280;63609;49.992;14.512;2023-12-28T07:45:28;98155.50;;;4.96;48.22
75039;BME280;63609;49.992;14.512;2023-12-28T07:47:59;98152.56;;;5.69;47.99
75039;BME280;63609;49.992;14.512;2023-12-28T07:50:26;98159.47;;;5.72;47.53
75039;BME280;63609;49.992;14.512;2023-12-28T07:52:53;98170.44;;;6.01;47.67
75039;BME280;63609;49.992;14.512;2023-12-28T07:55:20;98180.94;;;5.91;48.19
75039;BME280;63609;49.992;14.512;2023-12-28T07:57:50;98178.28;;;6.02;47.52
75039;BME280;63609;49.992;14.512;2023-12-28T08:00:18;98189.72;;;5.92;47.80
75039;BME280;63609;49.992;14.512;2023-12-28T08:02:46;98180.94;;;6.02;46.88
75039;BME280;63609;49.992;14.512;2023-12-28T08:05:13;98183.09;;;6.20;47.18
75039;BME280;63609;49.992;14.512;2023-12-28T08:07:40;98188.50;;;6.07;47.91
75039;BME280;63609;49.992;14.512;2023-12-28T08:10:11;98187.06;;;6.03;46.98
75039;BME280;63609;49.992;14.512;2023-12-28T08:12:38;98181.91;;;6.24;47.35
75039;BME280;63609;49.992;14.512;2023-12-28T08:15:06;98187.28;;;6.45;47.54
75039;BME280;63609;49.992;14.512;2023-12-28T08:17:33;98189.84;;;6.24;46.24
75039;BME280;63609;49.992;14.512;2023-12-28T08:20:00;98191.78;;;6.33;46.76
75039;BME280;63609;49.992;14.512;2023-12-28T08:22:27;98192.00;;;6.30;46.80
75039;BME280;63609;49.992;14.512;2023-12-28T08:24:55;98190.66;;;6.47;46.52
75039;BME280;63609;49.992;14.512;2023-12-28T08:27:23;98194.91;;;6.38;45.82
75039;BME280;63609;49.992;14.512;2023-12-28T08:29:51;98200.44;;;6.57;46.39
75039;BME280;63609;49.992;14.512;2023-12-28T08:32:18;98200.44;;;6.57;45.93
75039;BME280;63609;49.992;14.512;2023-12-28T08:34:45;98199.03;;;6.85;45.50
75039;BME280;63609;49.992;14.512;2023-12-28T08:37:14;98203.78;;;6.70;44.90
75039;BME280;63609;49.992;14.512;2023-12-28T08:39:41;98204.00;;;6.79;45.86
75039;BME280;63609;49.992;14.512;2023-12-28T08:42:08;98199.72;;;6.98;45.62
75039;BME280;63609;49.992;14.512;2023-12-28T08:44:35;98196.44;;;7.06;45.37
75039;BME280;63609;49.992;14.512;2023-12-28T08:47:03;98204.84;;;7.22;45.68
75039;BME280;63609;49.992;14.512;2023-12-28T08:49:30;98199.06;;;7.28;44.25
75039;BME280;63609;49.992;14.512;2023-12-28T08:52:03;98187.66;;;7.38;45.03
75039;BME280;63609;49.992;14.512;2023-12-28T08:54:31;98171.03;;;7.24;45.48
75039;BME280;63609;49.992;14.512;2023-12-28T08:56:58;98175.88;;;7.19;45.84
75039;BME280;63609;49.992;14.512;2023-12-28T08:59:26;98170.22;;;7.13;45.41
75039;BME280;63609;49.992;14.512;2023-12-28T09:01:54;98155.38;;;7.21;46.39
75039;BME280;63609;49.992;14.512;2023-12-28T09:04:22;98171.00;;;7.36;45.90
75039;BME280;63609;49.992;14.512;2023-12-28T09:06:48;98160.19;;;7.16;45.85
75039;BME280;63609;49.992;14.512;2023-12-28T09:09:16;98165.59;;;7.26;46.49
75039;BME280;63609;49.992;14.512;2023-12-28T09:11:43;98166.91;;;7.20;46.50
75039;BME280;63609;49.992;14.512;2023-12-28T09:14:09;98177.53;;;7.31;47.49
75039;BME280;63609;49.992;14.512;2023-12-28T09:16:36;98161.28;;;7.14;47.98
75039;BME280;63609;49.992;14.512;2023-12-28T09:19:03;98163.75;;;7.38;48.59
75039;BME280;63609;49.992;14.512;2023-12-28T09:21:30;98169.84;;;7.28;48.38
75039;BME280;63609;49.992;14.512;2023-12-28T09:23:57;98160.38;;;7.36;49.04
75039;BME280;63609;49.992;14.512;2023-12-28T09:26:24;98183.47;;;7.24;49.91
75039;BME280;63609;49.992;14.512;2023-12-28T09:28:54;98176.63;;;7.10;50.64
75039;BME280;63609;49.992;14.512;2023-12-28T09:31:21;98182.84;;;6.99;52.00
75039;BME280;63609;49.992;14.512;2023-12-28T09:33:48;98197.34;;;7.16;51.33
75039;BME280;63609;49.992;14.512;2023-12-28T09:36:16;98183.69;;;7.00;51.46
75039;BME280;63609;49.992;14.512;2023-12-28T09:38:44;98190.09;;;7.18;51.75
75039;BME280;63609;49.992;14.512;2023-12-28T09:41:15;98178.41;;;6.89;52.68
75039;BME280;63609;49.992;14.512;2023-12-28T09:44:11;98177.59;;;7.09;52.57
75039;BME280;63609;49.992;14.512;2023-12-28T09:46:36;98178.69;;;7.07;53.08
75039;BME280;63609;49.992;14.512;2023-12-28T09:49:03;98182.16;;;7.29;52.86
75039;BME280;63609;49.992;14.512;2023-12-28T09:51:30;98190.25;;;7.49;52.25
75039;BME280;63609;49.992;14.512;2023-12-28T09:53:57;98183.47;;;7.24;52.90
75039;BME280;63609;49.992;14.512;2023-12-28T09:56:25;98182.56;;;7.02;53.31
75039;BME280;63609;49.992;14.512;2023-12-28T09:58:57;98177.91;;;7.27;52.97
75039;BME280;63609;49.992;14.512;2023-12-28T10:01:24;98170.56;;;7.19;52.42
75039;BME280;63609;49.992;14.512;2023-12-28T10:03:51;98169.19;;;7.04;52.94
75039;BME280;63609;49.992;14.512;2023-12-28T10:06:19;98172.81;;;7.03;54.07
75039;BME280;63609;49.992;14.512;2023-12-28T10:08:47;98145.50;;;7.12;53.33
75039;BME280;63609;49.992;14.512;2023-12-28T10:11:16;98153.38;;;7.34;53.38
75039;BME280;63609;49.992;14.512;2023-12-28T10:13:45;98156.03;;;7.34;52.90
75039;BME280;63609;49.992;14.512;2023-12-28T10:16:12;98160.19;;;7.48;52.75
75039;BME280;63609;49.992;14.512;2023-12-28T10:18:42;98179.28;;;7.42;52.71
75039;BME280;63609;49.992;14.512;2023-12-28T10:21:11;98175.56;;;7.65;52.30
75039;BME280;63609;49.992;14.512;2023-12-28T10:23:39;98182.63;;;7.55;52.33
75039;BME280;63609;49.992;14.512;2023-12-28T10:26:07;98183.69;;;7.74;52.39
75039;BME280;63609;49.992;14.512;2023-12-28T10:28:35;98196.03;;;7.54;52.58
75039;BME280;63609;49.992;14.512;2023-12-28T10:31:07;98200.03;;;7.48;51.93
75039;BME280;63609;49.992;14.512;2023-12-28T10:33:36;98176.38;;;7.66;51.44
75039;BME280;63609;49.992;14.512;2023-12-28T10:36:06;98182.94;;;7.62;51.11
75039;BME280;63609;49.992;14.512;2023-12-28T10:38:37;98186.63;;;7.71;49.92
75039;BME280;63609;49.992;14.512;2023-12-28T10:41:07;98182.84;;;7.94;50.18
75039;BME280;63609;49.992;14.512;2023-12-28T10:46:27;98175.72;;;8.25;49.64
75039;BME280;63609;49.992;14.512;2023-12-28T10:49:02;98180.53;;;8.10;50.38
75039;BME280;63609;49.992;14.512;2023-12-28T10:51:34;98177.28;;;7.76;49.67
75039;BME280;63609;49.992;14.512;2023-12-28T10:54:23;98162.00;;;7.89;49.99
75039;BME280;63609;49.992;14.512;2023-12-28T11:02:39;98174.56;;;7.87;50.19
75039;BME280;63609;49.992;14.512;2023-12-28T11:05:08;98175.53;;;7.86;49.71
75039;BME280;63609;49.992;14.512;2023-12-28T11:07:40;98190.38;;;7.89;49.75
75039;BME280;63609;49.992;14.512;2023-12-28T11:10:08;98183.28;;;7.99;49.97
75039;BME280;63609;49.992;14.512;2023-12-28T11:12:37;98185.38;;;7.75;49.83
75039;BME280;63609;49.992;14.512;2023-12-28T11:15:06;98191.56;;;8.06;49.46
75039;BME280;63609;49.992;14.512;2023-12-28T11:17:39;98178.34;;;7.64;48.86
75039;BME280;63609;49.992;14.512;2023-12-28T11:20:08;98181.69;;;7.87;49.31
75039;BME280;63609;49.992;14.512;2023-12-28T11:22:37;98174.44;;;8.19;48.54
75039;BME280;63609;49.992;14.512;2023-12-28T11:25:05;98190.00;;;7.93;48.66
75039;BME280;63609;49.992;14.512;2023-12-28T11:27:36;98195.75;;;7.99;49.01
75039;BME280;63609;49.992;14.512;2023-12-28T11:30:06;98192.97;;;7.79;48.56
75039;BME280;63609;49.992;14.512;2023-12-28T11:32:40;98192.19;;;7.68;47.91
75039;BME280;63609;49.992;14.512;2023-12-28T11:35:13;98176.38;;;7.66;48.50
75039;BME280;63609;49.992;14.512;2023-12-28T11:37:46;98168.66;;;7.84;48.57
75039;BME280;63609;49.992;14.512;2023-12-28T11:40:18;98167.31;;;7.89;48.83
75039;BME280;63609;49.992;14.512;2023-12-28T11:42:50;98164.78;;;7.67;48.91
75039;BME280;63609;49.992;14.512;2023-12-28T11:45:19;98157.19;;;7.83;49.32
75039;BME280;63609;49.992;14.512;2023-12-28T11:47:46;98170.09;;;7.88;49.18
75039;BME280;63609;49.992;14.512;2023-12-28T11:50:14;98161.50;;;7.84;49.26
75039;BME280;63609;49.992;14.512;2023-12-28T11:52:41;98167.31;;;7.69;50.11
75039;BME280;63609;49.992;14.512;2023-12-28T11:55:11;98158.75;;;7.65;50.70
75039;BME280;63609;49.992;14.512;2023-12-28T11:57:46;98160.84;;;7.61;50.50
75039;BME280;63609;49.992;14.512;2023-12-28T12:00:14;98175.53;;;7.45;50.89
75039;BME280;63609;49.992;14.512;2023-12-28T12:02:44;98170.41;;;7.53;50.70
75039;BME280;63609;49.992;14.512;2023-12-28T12:05:12;98156.91;;;7.56;51.38
75039;BME280;63609;49.992;14.512;2023-12-28T12:07:40;98141.13;;;7.43;51.27
75039;BME280;63609;49.992;14.512;2023-12-28T12:10:08;98137.81;;;7.51;52.06
75039;BME280;63609;49.992;14.512;2023-12-28T12:12:35;98148.56;;;7.49;52.51
75039;BME280;63609;49.992;14.512;2023-12-28T12:15:03;98137.25;;;7.15;53.03
75039;BME280;63609;49.992;14.512;2023-12-28T12:17:31;98138.28;;;7.35;53.00
75039;BME280;63609;49.992;14.512;2023-12-28T12:19:58;98136.84;;;7.52;52.28
75039;BME280;63609;49.992;14.512;2023-12-28T12:22:26;98136.81;;;7.63;52.75
75039;BME280;63609;49.992;14.512;2023-12-28T12:24:56;98128.69;;;7.44;53.34
75039;BME280;63609;49.992;14.512;2023-12-28T12:27:26;98126.81;;;7.34;53.76
75039;BME280;63609;49.992;14.512;2023-12-28T12:29:53;98119.31;;;7.40;53.44
75039;BME280;63609;49.992;14.512;2023-12-28T12:32:20;98131.09;;;7.47;54.08
75039;BME280;63609;49.992;14.512;2023-12-28T12:34:50;98134.66;;;7.57;54.24
75039;BME280;63609;49.992;14.512;2023-12-28T12:37:18;98118.22;;;7.42;55.00
75039;BME280;63609;49.992;14.512;2023-12-28T12:39:46;98112.31;;;7.39;54.94
75039;BME280;63609;49.992;14.512;2023-12-28T12:42:14;98123.56;;;7.52;54.60
75039;BME280;63609;49.992;14.512;2023-12-28T12:44:41;98109.00;;;7.46;54.03
75039;BME280;63609;49.992;14.512;2023-12-28T12:47:08;98111.91;;;7.43;54.12
75039;BME280;63609;49.992;14.512;2023-12-28T12:49:36;98106.47;;;7.45;54.87
75039;BME280;63609;49.992;14.512;2023-12-28T12:52:03;98117.03;;;7.35;55.00
75039;BME280;63609;49.992;14.512;2023-12-28T12:54:33;98120.41;;;7.37;54.88
75039;BME280;63609;49.992;14.512;2023-12-28T12:57:00;98125.19;;;7.22;55.51
75039;BME280;63609;49.992;14.512;2023-12-28T12:59:27;98118.69;;;7.15;55.16
75039;BME280;63609;49.992;14.512;2023-12-28T13:01:55;98113.75;;;7.11;55.59
75039;BME280;63609;49.992;14.512;2023-12-28T13:04:22;98113.47;;;7.46;54.76
75039;BME280;63609;49.992;14.512;2023-12-28T13:06:50;98120.72;;;7.23;55.31
75039;BME280;63609;49.992;14.512;2023-12-28T13:09:18;98115.44;;;7.12;55.39
75039;BME280;63609;49.992;14.512;2023-12-28T13:11:46;98105.63;;;7.23;55.73
75039;BME280;63609;49.992;14.512;2023-12-28T13:14:16;98107.88;;;7.07;55.47
75039;BME280;63609;49.992;14.512;2023-12-28T13:16:43;98107.03;;;7.27;54.76
75039;BME280;63609;49.992;14.512;2023-12-28T13:19:10;98115.63;;;7.20;55.28